createdAt,value
2023-03-03T00:01:07.367Z,31.27
2023-03-03T00:03:35.126Z,29.45
2023-03-03T00:06:03.286Z,30.48
2023-03-03T00:08:30.481Z,29.90
2023-03-03T00:10:57.572Z,28.52
2023-03-03T00:13:25.720Z,28.67
2023-03-03T00:15:53.300Z,29.10
2023-03-03T00:18:31.597Z,28.13
2023-03-03T00:21:01.061Z,27.85
2023-03-03T00:23:39.305Z,28.52
2023-03-03T00:26:25.337Z,29.15
2023-03-03T00:28:53.126Z,26.38
2023-03-03T00:31:21.999Z,28.00
2023-03-03T00:33:53.944Z,29.02
2023-03-03T00:36:27.451Z,26.95
2023-03-03T00:38:54.540Z,28.52
2023-03-03T00:41:24.231Z,27.65
2023-03-03T00:43:51.980Z,29.30
2023-03-03T00:46:19.945Z,30.20
2023-03-03T00:48:47.468Z,27.88
2023-03-03T00:51:21.644Z,29.65
2023-03-03T00:53:49.184Z,29.75
2023-03-03T00:56:16.811Z,28.35
2023-03-03T00:58:48.143Z,29.40
2023-03-03T01:01:15.921Z,28.27
2023-03-03T01:03:43.299Z,28.73
2023-03-03T01:06:10.681Z,30.77
2023-03-03T01:08:37.824Z,29.38
2023-03-03T01:11:07.245Z,28.58
2023-03-03T01:13:37.549Z,28.92
2023-03-03T01:16:05.571Z,27.58
2023-03-03T01:18:32.932Z,31.00
2023-03-03T01:21:00.104Z,28.80
2023-03-03T01:23:27.239Z,27.35
2023-03-03T01:25:54.357Z,24.60
2023-03-03T01:28:21.635Z,25.42
2023-03-03T01:30:48.804Z,24.67
2023-03-03T01:33:15.923Z,25.55
2023-03-03T01:35:47.141Z,26.05
2023-03-03T01:38:14.819Z,25.02
2023-03-03T01:40:42.159Z,26.27
2023-03-03T01:43:09.310Z,26.10
2023-03-03T01:45:59.683Z,26.70
2023-03-03T01:48:30.526Z,25.60
2023-03-03T01:51:01.764Z,26.08
2023-03-03T01:53:35.259Z,26.85
2023-03-03T01:56:03.956Z,24.95
2023-03-03T01:58:32.824Z,26.35
2023-03-03T02:01:03.256Z,25.58
2023-03-03T02:03:31.030Z,27.92
2023-03-03T02:06:01.371Z,26.42
2023-03-03T02:08:35.464Z,29.48
2023-03-03T02:11:04.194Z,26.65
2023-03-03T02:13:31.242Z,27.08
2023-03-03T02:15:59.237Z,26.67
2023-03-03T02:18:26.537Z,27.35
2023-03-03T02:21:02.682Z,24.95
2023-03-03T02:23:39.702Z,27.25
2023-03-03T02:26:11.638Z,26.60
2023-03-03T02:28:39.372Z,27.20
2023-03-03T02:31:10.935Z,26.45
2023-03-03T02:33:38.168Z,27.13
2023-03-03T02:36:05.352Z,24.48
2023-03-03T02:38:42.462Z,25.45
2023-03-03T02:41:15.724Z,24.40
2023-03-03T02:44:01.304Z,23.58
2023-03-03T02:46:29.668Z,25.92
2023-03-03T02:48:56.733Z,24.55
2023-03-03T02:51:23.905Z,23.33
2023-03-03T02:53:51.090Z,22.23
2023-03-03T02:56:18.225Z,24.17
2023-03-03T02:58:45.378Z,25.15
2023-03-03T03:01:12.601Z,26.10
2023-03-03T03:03:39.959Z,24.60
2023-03-03T03:06:07.102Z,26.80
2023-03-03T03:08:34.196Z,25.08
2023-03-03T03:11:01.313Z,25.92
2023-03-03T03:13:28.584Z,26.52
2023-03-03T03:15:55.703Z,25.98
2023-03-03T03:18:23.053Z,24.77
2023-03-03T03:20:50.169Z,24.17
2023-03-03T03:23:17.672Z,25.67
2023-03-03T03:25:48.204Z,26.10
2023-03-03T03:28:16.048Z,29.55
2023-03-03T03:30:46.766Z,27.45
2023-03-03T03:33:13.975Z,27.98
2023-03-03T03:35:45.511Z,30.23
2023-03-03T03:38:13.134Z,28.47
2023-03-03T03:40:40.586Z,27.75
2023-03-03T03:43:07.833Z,28.70
2023-03-03T03:45:35.035Z,25.55
2023-03-03T03:48:02.180Z,25.85
2023-03-03T03:50:29.262Z,58.97
2023-03-03T03:52:56.365Z,30.52
2023-03-03T03:55:23.559Z,29.50
2023-03-03T03:57:50.691Z,26.83
2023-03-03T04:00:18.061Z,29.40
2023-03-03T04:02:45.241Z,30.27
2023-03-03T04:05:12.444Z,30.52
2023-03-03T04:07:39.559Z,29.40
2023-03-03T04:10:07.103Z,29.40
2023-03-03T04:12:38.479Z,29.52
2023-03-03T04:15:09.673Z,31.15
2023-03-03T04:17:36.800Z,29.75
2023-03-03T04:20:04.467Z,29.92
2023-03-03T04:22:41.288Z,32.00
2023-03-03T04:25:08.991Z,32.55
2023-03-03T04:27:37.178Z,34.67
2023-03-03T04:30:05.045Z,33.70
2023-03-03T04:32:33.869Z,32.47
2023-03-03T04:35:07.721Z,31.77
2023-03-03T04:37:36.255Z,32.78
2023-03-03T04:40:03.569Z,33.85
2023-03-03T04:42:30.734Z,32.55
2023-03-03T04:44:57.876Z,33.58
2023-03-03T04:47:25.097Z,31.17
2023-03-03T04:49:52.247Z,31.73
2023-03-03T04:52:19.358Z,31.85
2023-03-03T04:54:46.528Z,30.17
2023-03-03T04:57:13.680Z,30.48
2023-03-03T04:59:40.817Z,30.15
2023-03-03T05:02:07.975Z,32.45
2023-03-03T05:04:35.715Z,32.80
2023-03-03T05:07:02.859Z,30.05
2023-03-03T05:09:30.029Z,30.25
2023-03-03T05:11:57.140Z,31.25
2023-03-03T05:14:24.272Z,31.63
2023-03-03T05:16:51.409Z,32.03
2023-03-03T05:19:18.676Z,32.03
2023-03-03T05:21:45.824Z,35.78
2023-03-03T05:24:13.839Z,32.08
2023-03-03T05:26:41.639Z,32.03
2023-03-03T05:29:09.800Z,31.67
2023-03-03T05:31:37.021Z,31.23
2023-03-03T05:34:04.192Z,29.80
2023-03-03T05:36:31.356Z,29.02
2023-03-03T05:38:58.531Z,30.33
2023-03-03T05:41:25.666Z,31.70
2023-03-03T05:43:52.801Z,32.38
2023-03-03T05:46:19.985Z,31.67
2023-03-03T05:48:47.224Z,33.13
2023-03-03T05:51:14.837Z,33.78
2023-03-03T05:53:42.288Z,32.20
2023-03-03T05:56:09.424Z,33.40
2023-03-03T05:58:36.532Z,33.67
2023-03-03T06:01:03.661Z,34.13
2023-03-03T06:03:31.779Z,33.35
2023-03-03T06:05:58.927Z,33.45
2023-03-03T06:08:26.077Z,34.83
2023-03-03T06:10:53.213Z,34.45
2023-03-03T06:13:20.353Z,33.97
2023-03-03T06:15:47.657Z,34.67
2023-03-03T06:18:14.923Z,35.70
2023-03-03T06:20:42.065Z,35.03
2023-03-03T06:23:09.220Z,34.90
2023-03-03T06:25:36.302Z,33.58
2023-03-03T06:28:04.079Z,31.58
2023-03-03T06:30:31.240Z,32.45
2023-03-03T06:32:58.650Z,30.52
2023-03-03T06:35:25.952Z,31.65
2023-03-03T06:37:53.074Z,30.73
2023-03-03T06:40:20.413Z,30.60
2023-03-03T06:42:47.574Z,32.72
2023-03-03T06:45:14.788Z,31.40
2023-03-03T06:47:42.387Z,34.55
2023-03-03T06:50:10.998Z,29.45
2023-03-03T06:52:38.156Z,28.98
2023-03-03T06:55:13.816Z,30.60
2023-03-03T06:57:41.341Z,27.75
2023-03-03T07:00:41.145Z,28.00
2023-03-03T07:03:24.209Z,26.83
2023-03-03T07:05:52.179Z,27.00
2023-03-03T07:08:20.406Z,27.42
2023-03-03T07:10:48.168Z,28.85
2023-03-03T07:13:15.265Z,28.08
2023-03-03T07:15:42.418Z,29.08
2023-03-03T07:18:22.260Z,27.92
2023-03-03T07:20:49.611Z,27.90
2023-03-03T07:23:22.451Z,26.90
2023-03-03T07:25:49.655Z,28.85
2023-03-03T07:28:23.175Z,29.02
2023-03-03T07:30:50.496Z,28.95
2023-03-03T07:33:28.266Z,28.67
2023-03-03T07:35:56.981Z,29.88
2023-03-03T07:38:26.390Z,30.95
2023-03-03T07:40:54.804Z,29.83
2023-03-03T07:43:28.489Z,30.05
2023-03-03T07:46:02.737Z,29.77
2023-03-03T07:48:37.734Z,31.08
2023-03-03T07:51:17.282Z,30.73
2023-03-03T07:53:44.446Z,30.88
2023-03-03T07:56:31.720Z,31.73
2023-03-03T07:58:59.204Z,27.73
2023-03-03T08:01:39.848Z,29.98
2023-03-03T08:04:25.314Z,27.20
2023-03-03T08:06:53.271Z,27.17
2023-03-03T08:09:20.415Z,28.40
2023-03-03T08:12:00.163Z,30.88
2023-03-03T08:14:30.302Z,29.40
2023-03-03T08:17:00.506Z,31.10
2023-03-03T08:19:30.336Z,30.77
2023-03-03T08:22:01.554Z,28.63
2023-03-03T08:24:28.714Z,27.58
2023-03-03T08:26:55.850Z,27.48
2023-03-03T08:29:23.035Z,27.52
2023-03-03T08:31:50.230Z,29.20
2023-03-03T08:34:17.429Z,26.27
2023-03-03T08:36:44.616Z,26.40
2023-03-03T08:39:11.754Z,25.50
2023-03-03T08:41:40.721Z,26.23
2023-03-03T08:44:07.875Z,25.25
2023-03-03T08:46:35.101Z,26.70
2023-03-03T08:49:02.448Z,25.52
2023-03-03T08:51:29.622Z,25.98
2023-03-03T08:53:56.741Z,25.25
2023-03-03T08:56:23.876Z,26.02
2023-03-03T08:59:01.747Z,26.67
2023-03-03T09:01:30.280Z,25.25
2023-03-03T09:03:57.438Z,26.48
2023-03-03T09:06:24.558Z,24.38
2023-03-03T09:08:51.661Z,25.25
2023-03-03T09:11:23.072Z,24.83
2023-03-03T09:13:53.272Z,26.15
2023-03-03T09:16:22.234Z,26.17
2023-03-03T09:18:49.365Z,24.60
2023-03-03T09:21:22.687Z,24.77
2023-03-03T09:23:57.436Z,22.55
2023-03-03T09:26:28.442Z,23.20
2023-03-03T09:29:01.521Z,21.55
2023-03-03T09:31:37.768Z,23.13
2023-03-03T09:34:13.277Z,23.20
2023-03-03T09:36:40.389Z,24.48
2023-03-03T09:39:26.890Z,24.25
2023-03-03T09:41:59.806Z,22.30
2023-03-03T09:44:42.735Z,22.35
2023-03-03T09:50:09.320Z,23.17
2023-03-03T09:52:41.440Z,22.00
2023-03-03T09:55:17.456Z,22.60
2023-03-03T09:57:58.428Z,21.35
2023-03-03T10:00:40.430Z,20.83
2023-03-03T10:03:19.646Z,21.40
2023-03-03T10:05:53.881Z,23.58
2023-03-03T10:08:20.959Z,21.58
2023-03-03T10:11:09.285Z,22.30
2023-03-03T10:13:51.682Z,20.75
2023-03-03T10:16:25.496Z,21.20
2023-03-03T10:18:58.590Z,21.45
2023-03-03T10:21:29.333Z,19.42
2023-03-03T10:24:16.666Z,22.05
2023-03-03T10:27:05.273Z,21.05
2023-03-03T10:29:49.929Z,21.63
2023-03-03T10:32:20.172Z,20.50
2023-03-03T10:35:06.394Z,19.35
2023-03-03T10:37:52.366Z,19.13
2023-03-03T10:40:49.002Z,20.23
2023-03-03T10:43:31.068Z,19.10
2023-03-03T10:48:43.419Z,20.17
2023-03-03T10:51:27.515Z,19.10
2023-03-03T10:54:17.886Z,20.02
2023-03-03T10:56:52.930Z,21.55
2023-03-03T11:00:00.062Z,20.83
2023-03-03T11:02:32.818Z,19.25
2023-03-03T11:07:27.383Z,21.13
2023-03-03T11:10:00.950Z,20.02
2023-03-03T11:12:30.104Z,21.20
2023-03-03T11:15:18.354Z,21.08
2023-03-03T11:18:03.889Z,16.45
2023-03-03T11:20:34.016Z,19.75
2023-03-03T11:23:03.915Z,18.95
2023-03-03T11:25:33.252Z,18.65
2023-03-03T11:28:04.822Z,19.45
2023-03-03T11:30:34.298Z,18.83
2023-03-03T11:33:07.350Z,20.48
2023-03-03T11:35:52.702Z,20.35
2023-03-03T11:38:31.987Z,19.70
2023-03-03T11:41:05.004Z,20.05
2023-03-03T11:43:37.307Z,20.08
2023-03-03T11:48:49.717Z,19.17
2023-03-03T11:51:22.903Z,17.73
2023-03-03T11:53:56.089Z,19.92
2023-03-03T11:56:42.823Z,18.92
2023-03-03T11:59:30.062Z,19.38
2023-03-03T12:01:57.966Z,19.30
2023-03-03T12:04:36.553Z,19.75
2023-03-03T12:07:22.367Z,19.48
2023-03-03T12:10:08.280Z,20.55
2023-03-03T12:12:45.839Z,19.63
2023-03-03T12:15:31.876Z,18.55
2023-03-03T12:18:28.587Z,19.23
2023-03-03T12:21:04.974Z,23.83
2023-03-03T12:23:48.046Z,18.55
2023-03-03T12:28:46.181Z,19.90
2023-03-03T12:31:28.464Z,19.35
2023-03-03T12:33:58.140Z,17.30
2023-03-03T12:36:31.064Z,17.80
2023-03-03T12:39:08.147Z,18.88
2023-03-03T12:41:47.780Z,18.63
2023-03-03T12:44:26.971Z,19.55
2023-03-03T12:47:01.008Z,19.15
2023-03-03T12:49:42.965Z,19.98
2023-03-03T12:52:29.889Z,17.92
2023-03-03T12:54:56.959Z,17.95
2023-03-03T12:57:27.190Z,18.60
2023-03-03T12:59:54.477Z,19.63
2023-03-03T13:02:44.991Z,18.05
2023-03-03T13:05:24.410Z,18.67
2023-03-03T13:08:09.746Z,18.65
2023-03-03T13:10:36.956Z,19.05
2023-03-03T13:13:09.847Z,20.73
2023-03-03T13:15:54.780Z,20.13
2023-03-03T13:18:31.674Z,18.85
2023-03-03T13:21:11.006Z,18.92
2023-03-03T13:23:56.839Z,18.63
2023-03-03T13:26:31.781Z,18.48
2023-03-03T13:29:02.401Z,18.65
2023-03-03T13:31:37.720Z,19.25
2023-03-03T13:34:05.009Z,20.52
2023-03-03T13:36:37.593Z,19.27
2023-03-03T13:39:15.060Z,19.45
2023-03-03T13:41:47.004Z,19.58
2023-03-03T13:44:30.459Z,19.30
2023-03-03T13:47:11.994Z,19.42
2023-03-03T13:49:50.049Z,20.77
2023-03-03T13:52:27.530Z,20.75
2023-03-03T13:54:57.470Z,20.75
2023-03-03T13:57:42.215Z,20.77
2023-03-03T14:00:28.389Z,21.38
2023-03-03T14:02:55.600Z,20.67
2023-03-03T14:05:37.388Z,19.00
2023-03-03T14:08:13.806Z,19.40
2023-03-03T14:10:59.373Z,20.23
2023-03-03T14:13:32.629Z,20.27
2023-03-03T14:16:12.011Z,20.23
2023-03-03T14:18:53.126Z,19.80
2023-03-03T14:21:23.186Z,19.90
2023-03-03T14:23:57.307Z,21.08
2023-03-03T14:26:24.458Z,21.83
2023-03-03T14:28:52.982Z,21.48
2023-03-03T14:31:31.568Z,22.80
2023-03-03T14:34:03.346Z,21.40
2023-03-03T14:36:36.015Z,19.35
2023-03-03T14:39:03.302Z,20.10
2023-03-03T14:41:39.314Z,20.05
2023-03-03T14:44:25.703Z,21.40
2023-03-03T14:47:11.247Z,21.55
2023-03-03T14:49:39.524Z,20.90
2023-03-03T14:52:19.270Z,20.50
2023-03-03T14:54:53.537Z,22.95
2023-03-03T14:57:37.508Z,23.15
2023-03-03T15:00:27.202Z,22.92
2023-03-03T15:02:57.251Z,23.13
2023-03-03T15:05:29.385Z,21.25
2023-03-03T15:08:08.946Z,21.30
2023-03-03T15:10:40.578Z,22.73
2023-03-03T15:13:10.692Z,21.65
2023-03-03T15:15:48.611Z,26.88
2023-03-03T15:18:16.772Z,20.90
2023-03-03T15:20:46.120Z,25.92
2023-03-03T15:23:16.341Z,22.90
2023-03-03T15:25:59.425Z,23.27
2023-03-03T15:28:37.295Z,22.42
2023-03-03T15:31:09.125Z,22.17
2023-03-03T15:33:56.753Z,22.27
2023-03-03T15:36:29.790Z,22.83
2023-03-03T15:39:03.790Z,24.63
2023-03-03T15:41:49.589Z,24.42
2023-03-03T15:44:35.584Z,25.05
2023-03-03T15:47:12.453Z,25.05
2023-03-03T15:49:48.623Z,24.73
2023-03-03T15:52:22.525Z,23.73
2023-03-03T15:54:49.647Z,23.88
2023-03-03T15:57:19.599Z,23.85
2023-03-03T16:00:07.018Z,24.42
2023-03-03T16:02:47.767Z,25.58
2023-03-03T16:05:33.516Z,25.73
2023-03-03T16:08:14.157Z,24.95
2023-03-03T16:10:52.521Z,24.13
2023-03-03T16:13:41.031Z,24.80
2023-03-03T16:16:08.485Z,25.00
2023-03-03T16:18:35.666Z,24.50
2023-03-03T16:21:08.704Z,24.05
2023-03-03T16:23:48.020Z,25.50
2023-03-03T16:26:34.217Z,23.63
2023-03-03T16:29:36.947Z,27.95
2023-03-03T16:32:07.017Z,31.08
2023-03-03T16:34:40.074Z,30.65
2023-03-03T16:37:27.276Z,26.65
2023-03-03T16:40:00.281Z,27.20
2023-03-03T16:42:32.474Z,24.88
2023-03-03T16:45:07.278Z,29.25
2023-03-03T16:47:43.638Z,29.83
2023-03-03T16:50:29.291Z,24.65
2023-03-03T16:52:56.415Z,25.92
2023-03-03T16:55:28.814Z,26.85
2023-03-03T16:58:14.571Z,26.73
2023-03-03T17:00:48.250Z,26.17
2023-03-03T17:03:34.014Z,26.50
2023-03-03T17:06:04.915Z,26.63
2023-03-03T17:08:59.980Z,25.35
2023-03-03T17:11:37.248Z,26.80
2023-03-03T17:14:11.406Z,26.40
2023-03-03T17:16:51.428Z,27.48
2023-03-03T17:19:30.820Z,29.33
2023-03-03T17:21:57.885Z,25.85
2023-03-03T17:24:24.947Z,28.30
2023-03-03T17:27:16.144Z,27.80
2023-03-03T17:29:50.564Z,26.60
2023-03-03T17:32:38.030Z,27.02
2023-03-03T17:35:05.182Z,29.60
2023-03-03T17:37:49.464Z,45.45
2023-03-03T17:40:45.978Z,34.60
2023-03-03T17:43:13.139Z,35.65
2023-03-03T17:45:42.032Z,34.38
2023-03-03T17:48:20.902Z,37.15
2023-03-03T17:50:51.065Z,36.10
2023-03-03T17:53:30.075Z,34.05
2023-03-03T17:56:02.284Z,30.30
2023-03-03T17:58:45.700Z,28.83
2023-03-03T18:01:12.793Z,30.92
2023-03-03T18:03:59.039Z,34.20
2023-03-03T18:06:26.226Z,35.40
2023-03-03T18:09:14.871Z,37.22
2023-03-03T18:12:01.061Z,36.17
2023-03-03T18:14:44.283Z,38.92
2023-03-03T18:17:35.589Z,41.35
2023-03-03T18:20:17.736Z,49.42
2023-03-03T18:22:46.124Z,43.78
2023-03-03T18:25:13.195Z,38.47
2023-03-03T18:27:41.264Z,34.13
2023-03-03T18:30:08.480Z,33.30
2023-03-03T18:32:41.409Z,37.58
2023-03-03T18:35:24.653Z,44.47
2023-03-03T18:37:52.311Z,50.22
2023-03-03T18:40:29.257Z,33.47
2023-03-03T18:42:56.767Z,29.13
2023-03-03T18:45:25.583Z,27.55
2023-03-03T18:48:17.369Z,27.15
2023-03-03T18:50:49.150Z,25.67
2023-03-03T18:53:16.276Z,25.93
2023-03-03T18:55:44.986Z,26.52
2023-03-03T18:58:14.828Z,26.77
2023-03-03T19:00:44.694Z,26.95
2023-03-03T19:03:30.458Z,26.15
2023-03-03T19:05:58.530Z,27.42
2023-03-03T19:08:27.242Z,27.25
2023-03-03T19:10:54.450Z,28.63
2023-03-03T19:13:33.880Z,28.05
2023-03-03T19:16:02.200Z,26.85
2023-03-03T19:18:35.070Z,26.58
2023-03-03T19:21:06.593Z,27.73
2023-03-03T19:23:53.032Z,26.02
2023-03-03T19:26:21.726Z,27.00
2023-03-03T19:28:57.890Z,28.75
2023-03-03T19:31:42.215Z,32.15
2023-03-03T19:34:28.206Z,28.02
2023-03-03T19:37:11.761Z,29.10
2023-03-03T19:39:46.338Z,29.85
2023-03-03T19:42:16.436Z,29.35
2023-03-03T19:45:02.230Z,30.70
2023-03-03T19:47:32.568Z,30.48
2023-03-03T19:50:18.355Z,31.55
2023-03-03T19:52:45.609Z,30.05
2023-03-03T19:55:30.890Z,31.70
2023-03-03T19:58:17.489Z,30.42
2023-03-03T20:00:50.380Z,31.48
2023-03-03T20:03:35.961Z,31.80
2023-03-03T20:06:03.010Z,31.10
2023-03-03T20:08:30.039Z,29.75
2023-03-03T20:11:10.428Z,29.77
2023-03-03T20:13:45.644Z,31.38
2023-03-03T20:16:24.536Z,29.67
2023-03-03T20:19:01.425Z,30.13
2023-03-03T20:21:36.019Z,29.10
2023-03-03T20:24:06.098Z,29.23
2023-03-03T20:26:41.105Z,29.35
2023-03-03T20:29:26.921Z,28.90
2023-03-03T20:31:57.134Z,28.92
2023-03-03T20:34:43.251Z,27.98
2023-03-03T20:37:29.337Z,29.27
2023-03-03T20:40:02.452Z,28.60
2023-03-03T20:42:35.798Z,27.10
2023-03-03T20:45:05.900Z,26.50
2023-03-03T20:47:52.267Z,27.40
2023-03-03T20:50:46.070Z,27.92
2023-03-03T20:53:51.964Z,27.00
2023-03-03T20:56:19.090Z,25.80
2023-03-03T20:58:55.119Z,26.95
2023-03-03T21:01:42.476Z,26.20
2023-03-03T21:04:23.805Z,27.60
2023-03-03T21:06:51.015Z,26.55
2023-03-03T21:09:38.953Z,27.50
2023-03-03T21:12:27.348Z,28.20
2023-03-03T21:15:04.922Z,27.85
2023-03-03T21:17:32.294Z,27.10
2023-03-03T21:20:35.059Z,27.48
2023-03-03T21:23:02.771Z,27.55
2023-03-03T21:25:41.853Z,25.83
2023-03-03T21:28:14.834Z,24.77
2023-03-03T21:31:01.144Z,26.13
2023-03-03T21:33:47.332Z,23.58
2023-03-03T21:36:23.350Z,25.52
2023-03-03T21:38:51.610Z,33.63
2023-03-03T21:41:18.906Z,40.13
2023-03-03T21:43:47.355Z,38.20
2023-03-03T21:46:17.852Z,41.38
2023-03-03T21:48:45.142Z,40.65
2023-03-03T21:51:15.510Z,39.83
2023-03-03T21:53:44.056Z,49.47
2023-03-03T21:56:13.493Z,56.63
2023-03-03T21:58:41.356Z,60.38
2023-03-03T22:01:08.504Z,58.55
2023-03-03T22:03:36.076Z,51.22
2023-03-03T22:06:03.334Z,47.28
2023-03-03T22:08:30.565Z,47.40
2023-03-03T22:10:57.722Z,46.80
2023-03-03T22:13:25.715Z,44.10
2023-03-03T22:15:53.587Z,46.08
2023-03-03T22:18:20.968Z,47.03
2023-03-03T22:20:48.766Z,45.92
2023-03-03T22:23:16.218Z,42.75
2023-03-03T22:25:43.444Z,42.80
2023-03-03T22:28:10.614Z,39.35
2023-03-03T22:30:37.813Z,36.58
2023-03-03T22:33:04.950Z,37.47
2023-03-03T22:35:32.182Z,36.05
2023-03-03T22:37:59.406Z,39.70
2023-03-03T22:40:26.526Z,36.03
2023-03-03T22:42:53.644Z,35.90
2023-03-03T22:45:20.881Z,34.50
2023-03-03T22:47:48.039Z,32.00
2023-03-03T22:50:15.264Z,32.08
2023-03-03T22:52:42.433Z,29.65
2023-03-03T22:55:09.751Z,28.58
2023-03-03T22:57:36.982Z,28.33
2023-03-03T23:00:06.307Z,29.10
2023-03-03T23:02:33.594Z,27.38
2023-03-03T23:05:01.797Z,26.13
2023-03-03T23:07:29.834Z,26.27
2023-03-03T23:09:56.915Z,26.55
2023-03-03T23:12:24.143Z,23.73
2023-03-03T23:14:51.321Z,22.52
2023-03-03T23:17:18.403Z,23.60
2023-03-03T23:19:46.385Z,23.02
2023-03-03T23:22:14.185Z,22.27
2023-03-03T23:24:41.478Z,23.02
2023-03-03T23:27:09.453Z,22.65
2023-03-03T23:29:36.949Z,20.70
2023-03-03T23:32:04.340Z,21.15
2023-03-03T23:34:32.102Z,19.33
2023-03-03T23:36:59.271Z,19.70
2023-03-03T23:39:26.439Z,18.48
2023-03-03T23:41:53.569Z,19.33
2023-03-03T23:44:20.681Z,19.17
2023-03-03T23:46:47.852Z,19.83
2023-03-03T23:49:14.983Z,20.55
2023-03-03T23:51:42.889Z,21.05
2023-03-03T23:54:10.065Z,21.58
2023-03-03T23:56:37.148Z,21.38
2023-03-03T23:59:04.524Z,22.17
